<?xml version="1.0" encoding="UTF-8" standalone="no" ?>
<gpx xmlns="http://www.topografix.com/GPX/1/1" xmlns:xsi="http://www.w3.org/2001/XMLSchema-instance" xsi:schemaLocation="http://www.topografix.com/GPX/1/1 http://www.topografix.com/GPX/1/1/gpx.xsd" version="1.1" creator="VisuGPX - https://www.visugpx.com">
  <metadata>
    <name>Clermont-Ferrand - Massat - Pau par François</name>
    <desc><![CDATA[Trajet effectué par François sur la "Diagonale du vide" en aout 2020]]></desc>
  </metadata>
  <trk>
    <name><![CDATA[route109]]></name>
    <trkseg>
      <trkpt lat="44.11841" lon="3.61471">
        <ele>1140.8</ele>
        <time>2020-08-22T06:32:22Z</time>
      </trkpt>
      <trkpt lat="44.11791" lon="3.61362">
        <ele>1139.5</ele>
        <time>2020-08-22T06:35:28Z</time>
      </trkpt>
      <trkpt lat="44.1175" lon="3.61245">
        <ele>1138.5</ele>
        <time>2020-08-22T06:37:09Z</time>
      </trkpt>
      <trkpt lat="44.11714" lon="3.61125">
        <ele>1139.1</ele>
        <time>2020-08-22T06:38:46Z</time>
      </trkpt>
      <trkpt lat="44.11671" lon="3.61008">
        <ele>1140.4</ele>
        <time>2020-08-22T06:41:08Z</time>
      </trkpt>
      <trkpt lat="44.11668" lon="3.60876">
        <ele>1142.6</ele>
        <time>2020-08-22T06:42:56Z</time>
      </trkpt>
      <trkpt lat="44.1166" lon="3.60749">
        <ele>1145.6</ele>
        <time>2020-08-22T06:44:36Z</time>
      </trkpt>
      <trkpt lat="44.11641" lon="3.60619">
        <ele>1150.6</ele>
        <time>2020-08-22T06:46:53Z</time>
      </trkpt>
      <trkpt lat="44.11639" lon="3.60489">
        <ele>1156.1</ele>
        <time>2020-08-22T06:49:11Z</time>
      </trkpt>
      <trkpt lat="44.11678" lon="3.60374">
        <ele>1161.7</ele>
        <time>2020-08-22T06:51:10Z</time>
      </trkpt>
      <trkpt lat="44.11734" lon="3.60267">
        <ele>1175.3</ele>
        <time>2020-08-22T06:53:31Z</time>
      </trkpt>
      <trkpt lat="44.11822" lon="3.60231">
        <ele>1201.2</ele>
        <time>2020-08-22T06:55:39Z</time>
      </trkpt>
      <trkpt lat="44.1189" lon="3.60332">
        <ele>1238.2</ele>
        <time>2020-08-22T06:59:31Z</time>
      </trkpt>
      <trkpt lat="44.11903" lon="3.60457">
        <ele>1245</ele>
        <time>2020-08-22T07:13:41Z</time>
      </trkpt>
      <trkpt lat="44.11978" lon="3.60545">
        <ele>1247.8</ele>
        <time>2020-08-22T07:21:48Z</time>
      </trkpt>
      <trkpt lat="44.12059" lon="3.60484">
        <ele>1260.2</ele>
        <time>2020-08-22T07:30:27Z</time>
      </trkpt>
      <trkpt lat="44.12099" lon="3.60364">
        <ele>1267.4</ele>
        <time>2020-08-22T07:33:35Z</time>
      </trkpt>
      <trkpt lat="44.12164" lon="3.60271">
        <ele>1273.4</ele>
        <time>2020-08-22T07:36:47Z</time>
      </trkpt>
      <trkpt lat="44.12078" lon="3.60212">
        <ele>1301.7</ele>
        <time>2020-08-22T07:43:24Z</time>
      </trkpt>
      <trkpt lat="44.12054" lon="3.60077">
        <ele>1329.1</ele>
        <time>2020-08-22T07:47:31Z</time>
      </trkpt>
      <trkpt lat="44.12057" lon="3.59949">
        <ele>1345.2</ele>
        <time>2020-08-22T07:51:24Z</time>
      </trkpt>
      <trkpt lat="44.11997" lon="3.59843">
        <ele>1354.7</ele>
        <time>2020-08-22T07:54:59Z</time>
      </trkpt>
      <trkpt lat="44.11908" lon="3.59814">
        <ele>1362.6</ele>
        <time>2020-08-22T07:57:59Z</time>
      </trkpt>
      <trkpt lat="44.1195" lon="3.59699">
        <ele>1382.8</ele>
        <time>2020-08-22T08:03:30Z</time>
      </trkpt>
      <trkpt lat="44.11928" lon="3.59567">
        <ele>1399.6</ele>
        <time>2020-08-22T08:06:59Z</time>
      </trkpt>
      <trkpt lat="44.11943" lon="3.59438">
        <ele>1417.3</ele>
        <time>2020-08-22T08:12:28Z</time>
      </trkpt>
      <trkpt lat="44.12037" lon="3.59394">
        <ele>1423.3</ele>
        <time>2020-08-22T08:13:34Z</time>
      </trkpt>
      <trkpt lat="44.12133" lon="3.59382">
        <ele>1427</ele>
        <time>2020-08-22T08:14:43Z</time>
      </trkpt>
      <trkpt lat="44.12216" lon="3.59322">
        <ele>1429.3</ele>
        <time>2020-08-22T08:15:40Z</time>
      </trkpt>
      <trkpt lat="44.1229" lon="3.59255">
        <ele>1432.8</ele>
        <time>2020-08-22T08:16:41Z</time>
      </trkpt>
      <trkpt lat="44.12207" lon="3.59193">
        <ele>1453.8</ele>
        <time>2020-08-22T08:21:19Z</time>
      </trkpt>
      <trkpt lat="44.12112" lon="3.59207">
        <ele>1463.1</ele>
        <time>2020-08-22T08:23:20Z</time>
      </trkpt>
      <trkpt lat="44.12018" lon="3.59213">
        <ele>1478.5</ele>
        <time>2020-08-22T08:26:06Z</time>
      </trkpt>
      <trkpt lat="44.12002" lon="3.59087">
        <ele>1509</ele>
        <time>2020-08-22T08:29:48Z</time>
      </trkpt>
      <trkpt lat="44.11961" lon="3.5897">
        <ele>1517.1</ele>
        <time>2020-08-22T08:31:31Z</time>
      </trkpt>
      <trkpt lat="44.1193" lon="3.58846">
        <ele>1539.9</ele>
        <time>2020-08-22T08:38:52Z</time>
      </trkpt>
      <trkpt lat="44.11949" lon="3.58724">
        <ele>1544.4</ele>
        <time>2020-08-22T08:39:42Z</time>
      </trkpt>
      <trkpt lat="44.11965" lon="3.58589">
        <ele>1545.9</ele>
        <time>2020-08-22T08:43:00Z</time>
      </trkpt>
      <trkpt lat="44.11986" lon="3.58458">
        <ele>1546.6</ele>
        <time>2020-08-22T08:43:30Z</time>
      </trkpt>
      <trkpt lat="44.12008" lon="3.58316">
        <ele>1547.6</ele>
        <time>2020-08-22T08:43:50Z</time>
      </trkpt>
      <trkpt lat="44.12024" lon="3.58156">
        <ele>1547.6</ele>
        <time>2020-08-22T08:44:10Z</time>
      </trkpt>
      <trkpt lat="44.12001" lon="3.58016">
        <ele>1546.8</ele>
        <time>2020-08-22T08:44:25Z</time>
      </trkpt>
      <trkpt lat="44.11935" lon="3.57902">
        <ele>1541.3</ele>
        <time>2020-08-22T08:47:19Z</time>
      </trkpt>
      <trkpt lat="44.11919" lon="3.57765">
        <ele>1535.5</ele>
        <time>2020-08-22T08:47:39Z</time>
      </trkpt>
      <trkpt lat="44.11915" lon="3.57611">
        <ele>1533.2</ele>
        <time>2020-08-22T08:47:59Z</time>
      </trkpt>
      <trkpt lat="44.1188" lon="3.5749">
        <ele>1531.2</ele>
        <time>2020-08-22T08:48:19Z</time>
      </trkpt>
      <trkpt lat="44.11803" lon="3.57363">
        <ele>1529</ele>
        <time>2020-08-22T08:48:39Z</time>
      </trkpt>
      <trkpt lat="44.11746" lon="3.57243">
        <ele>1526.5</ele>
        <time>2020-08-22T08:48:54Z</time>
      </trkpt>
      <trkpt lat="44.11698" lon="3.57117">
        <ele>1523.2</ele>
        <time>2020-08-22T08:49:09Z</time>
      </trkpt>
      <trkpt lat="44.11768" lon="3.56999">
        <ele>1517</ele>
        <time>2020-08-22T08:49:29Z</time>
      </trkpt>
      <trkpt lat="44.11847" lon="3.56896">
        <ele>1511.4</ele>
        <time>2020-08-22T08:49:44Z</time>
      </trkpt>
      <trkpt lat="44.11931" lon="3.56813">
        <ele>1505.8</ele>
        <time>2020-08-22T08:49:59Z</time>
      </trkpt>
      <trkpt lat="44.11994" lon="3.56701">
        <ele>1503.3</ele>
        <time>2020-08-22T08:50:14Z</time>
      </trkpt>
      <trkpt lat="44.12029" lon="3.56546">
        <ele>1498</ele>
        <time>2020-08-22T08:50:29Z</time>
      </trkpt>
      <trkpt lat="44.12075" lon="3.56415">
        <ele>1494.1</ele>
        <time>2020-08-22T08:50:44Z</time>
      </trkpt>
      <trkpt lat="44.11996" lon="3.5634">
        <ele>1491</ele>
        <time>2020-08-22T08:50:59Z</time>
      </trkpt>
      <trkpt lat="44.11939" lon="3.56214">
        <ele>1486.5</ele>
        <time>2020-08-22T08:51:14Z</time>
      </trkpt>
      <trkpt lat="44.11835" lon="3.56147">
        <ele>1481.6</ele>
        <time>2020-08-22T08:51:29Z</time>
      </trkpt>
      <trkpt lat="44.11798" lon="3.5599">
        <ele>1474.9</ele>
        <time>2020-08-22T08:51:44Z</time>
      </trkpt>
      <trkpt lat="44.11769" lon="3.55811">
        <ele>1468.3</ele>
        <time>2020-08-22T08:51:59Z</time>
      </trkpt>
      <trkpt lat="44.11704" lon="3.55703">
        <ele>1465.6</ele>
        <time>2020-08-22T08:53:20Z</time>
      </trkpt>
      <trkpt lat="44.11639" lon="3.55599">
        <ele>1460.9</ele>
        <time>2020-08-22T08:53:40Z</time>
      </trkpt>
      <trkpt lat="44.11586" lon="3.55455">
        <ele>1459</ele>
        <time>2020-08-22T08:53:55Z</time>
      </trkpt>
      <trkpt lat="44.11504" lon="3.55323">
        <ele>1453.2</ele>
        <time>2020-08-22T08:54:10Z</time>
      </trkpt>
      <trkpt lat="44.11427" lon="3.55212">
        <ele>1447.2</ele>
        <time>2020-08-22T08:54:25Z</time>
      </trkpt>
      <trkpt lat="44.11496" lon="3.55085">
        <ele>1439.8</ele>
        <time>2020-08-22T08:54:40Z</time>
      </trkpt>
      <trkpt lat="44.11426" lon="3.54957">
        <ele>1431</ele>
        <time>2020-08-22T08:55:05Z</time>
      </trkpt>
      <trkpt lat="44.11317" lon="3.54916">
        <ele>1425.1</ele>
        <time>2020-08-22T08:55:20Z</time>
      </trkpt>
      <trkpt lat="44.11197" lon="3.54868">
        <ele>1417.8</ele>
        <time>2020-08-22T08:55:35Z</time>
      </trkpt>
      <trkpt lat="44.1112" lon="3.54739">
        <ele>1414</ele>
        <time>2020-08-22T08:55:50Z</time>
      </trkpt>
      <trkpt lat="44.10998" lon="3.54707">
        <ele>1407.9</ele>
        <time>2020-08-22T08:56:05Z</time>
      </trkpt>
      <trkpt lat="44.10889" lon="3.54619">
        <ele>1400.6</ele>
        <time>2020-08-22T08:56:20Z</time>
      </trkpt>
      <trkpt lat="44.10761" lon="3.54627">
        <ele>1398.2</ele>
        <time>2020-08-22T08:56:35Z</time>
      </trkpt>
      <trkpt lat="44.10653" lon="3.5474">
        <ele>1389.8</ele>
        <time>2020-08-22T08:56:50Z</time>
      </trkpt>
      <trkpt lat="44.10543" lon="3.54662">
        <ele>1385.1</ele>
        <time>2020-08-22T08:57:15Z</time>
      </trkpt>
      <trkpt lat="44.10461" lon="3.54535">
        <ele>1378</ele>
        <time>2020-08-22T08:57:30Z</time>
      </trkpt>
      <trkpt lat="44.10394" lon="3.54384">
        <ele>1370.4</ele>
        <time>2020-08-22T08:57:45Z</time>
      </trkpt>
      <trkpt lat="44.10351" lon="3.5422">
        <ele>1367.1</ele>
        <time>2020-08-22T08:58:00Z</time>
      </trkpt>
      <trkpt lat="44.10249" lon="3.54199">
        <ele>1362</ele>
        <time>2020-08-22T08:58:20Z</time>
      </trkpt>
      <trkpt lat="44.10189" lon="3.54378">
        <ele>1355.1</ele>
        <time>2020-08-22T08:58:35Z</time>
      </trkpt>
      <trkpt lat="44.10119" lon="3.54502">
        <ele>1352.1</ele>
        <time>2020-08-22T08:58:45Z</time>
      </trkpt>
      <trkpt lat="44.10025" lon="3.54585">
        <ele>1346.5</ele>
        <time>2020-08-22T08:58:55Z</time>
      </trkpt>
      <trkpt lat="44.09926" lon="3.54651">
        <ele>1338.6</ele>
        <time>2020-08-22T08:59:05Z</time>
      </trkpt>
      <trkpt lat="44.09833" lon="3.54739">
        <ele>1333.3</ele>
        <time>2020-08-22T08:59:15Z</time>
      </trkpt>
      <trkpt lat="44.09756" lon="3.54842">
        <ele>1329.3</ele>
        <time>2020-08-22T08:59:25Z</time>
      </trkpt>
      <trkpt lat="44.09662" lon="3.54902">
        <ele>1323</ele>
        <time>2020-08-22T08:59:35Z</time>
      </trkpt>
      <trkpt lat="44.09561" lon="3.54915">
        <ele>1311.8</ele>
        <time>2020-08-22T08:59:45Z</time>
      </trkpt>
      <trkpt lat="44.09496" lon="3.54803">
        <ele>1310.6</ele>
        <time>2020-08-22T08:59:55Z</time>
      </trkpt>
      <trkpt lat="44.094" lon="3.54695">
        <ele>1307.2</ele>
        <time>2020-08-22T09:00:10Z</time>
      </trkpt>
      <trkpt lat="44.0929" lon="3.54674">
        <ele>1299.5</ele>
        <time>2020-08-22T09:00:30Z</time>
      </trkpt>
      <trkpt lat="44.09197" lon="3.54643">
        <ele>1292.6</ele>
        <time>2020-08-22T09:01:38Z</time>
      </trkpt>
      <trkpt lat="44.09151" lon="3.54525">
        <ele>1283.5</ele>
        <time>2020-08-22T09:02:03Z</time>
      </trkpt>
      <trkpt lat="44.091" lon="3.54418">
        <ele>1281.9</ele>
        <time>2020-08-22T09:02:23Z</time>
      </trkpt>
      <trkpt lat="44.09066" lon="3.54286">
        <ele>1279.4</ele>
        <time>2020-08-22T09:02:43Z</time>
      </trkpt>
      <trkpt lat="44.09066" lon="3.54134">
        <ele>1277.1</ele>
        <time>2020-08-22T09:03:03Z</time>
      </trkpt>
      <trkpt lat="44.09043" lon="3.53998">
        <ele>1274.6</ele>
        <time>2020-08-22T09:03:23Z</time>
      </trkpt>
      <trkpt lat="44.08982" lon="3.53882">
        <ele>1272.5</ele>
        <time>2020-08-22T09:03:43Z</time>
      </trkpt>
      <trkpt lat="44.08903" lon="3.53806">
        <ele>1270</ele>
        <time>2020-08-22T09:04:03Z</time>
      </trkpt>
      <trkpt lat="44.08807" lon="3.53767">
        <ele>1267.8</ele>
        <time>2020-08-22T09:04:23Z</time>
      </trkpt>
      <trkpt lat="44.08835" lon="3.53909">
        <ele>1263.8</ele>
        <time>2020-08-22T09:05:22Z</time>
      </trkpt>
      <trkpt lat="44.08729" lon="3.53929">
        <ele>1261.2</ele>
        <time>2020-08-22T09:05:37Z</time>
      </trkpt>
      <trkpt lat="44.08627" lon="3.53908">
        <ele>1253.1</ele>
        <time>2020-08-22T09:05:52Z</time>
      </trkpt>
      <trkpt lat="44.08523" lon="3.53838">
        <ele>1244</ele>
        <time>2020-08-22T09:06:07Z</time>
      </trkpt>
      <trkpt lat="44.08429" lon="3.53733">
        <ele>1233.7</ele>
        <time>2020-08-22T09:06:22Z</time>
      </trkpt>
      <trkpt lat="44.08364" lon="3.53844">
        <ele>1225.1</ele>
        <time>2020-08-22T09:06:37Z</time>
      </trkpt>
      <trkpt lat="44.08275" lon="3.53969">
        <ele>1222.1</ele>
        <time>2020-08-22T09:06:52Z</time>
      </trkpt>
      <trkpt lat="44.08172" lon="3.54014">
        <ele>1221.1</ele>
        <time>2020-08-22T09:07:07Z</time>
      </trkpt>
      <trkpt lat="44.08194" lon="3.5389">
        <ele>1216.4</ele>
        <time>2020-08-22T09:07:27Z</time>
      </trkpt>
      <trkpt lat="44.08194" lon="3.53758">
        <ele>1215.3</ele>
        <time>2020-08-22T09:08:07Z</time>
      </trkpt>
      <trkpt lat="44.08108" lon="3.53689">
        <ele>1215.4</ele>
        <time>2020-08-22T09:08:56Z</time>
      </trkpt>
      <trkpt lat="44.08019" lon="3.53652">
        <ele>1217.2</ele>
        <time>2020-08-22T09:09:36Z</time>
      </trkpt>
      <trkpt lat="44.07938" lon="3.53589">
        <ele>1217.7</ele>
        <time>2020-08-22T09:10:11Z</time>
      </trkpt>
      <trkpt lat="44.07877" lon="3.53473">
        <ele>1219.3</ele>
        <time>2020-08-22T09:10:56Z</time>
      </trkpt>
      <trkpt lat="44.07849" lon="3.5335">
        <ele>1225.2</ele>
        <time>2020-08-22T09:11:32Z</time>
      </trkpt>
      <trkpt lat="44.07808" lon="3.53232">
        <ele>1228.5</ele>
        <time>2020-08-22T09:12:07Z</time>
      </trkpt>
      <trkpt lat="44.07707" lon="3.53254">
        <ele>1229.2</ele>
        <time>2020-08-22T09:12:52Z</time>
      </trkpt>
      <trkpt lat="44.07627" lon="3.53308">
        <ele>1228.9</ele>
        <time>2020-08-22T09:13:22Z</time>
      </trkpt>
      <trkpt lat="44.07573" lon="3.53405">
        <ele>1228.8</ele>
        <time>2020-08-22T09:13:57Z</time>
      </trkpt>
      <trkpt lat="44.07477" lon="3.53397">
        <ele>1229.4</ele>
        <time>2020-08-22T09:14:42Z</time>
      </trkpt>
      <trkpt lat="44.07387" lon="3.53398">
        <ele>1229.9</ele>
        <time>2020-08-22T09:15:17Z</time>
      </trkpt>
      <trkpt lat="44.07329" lon="3.53509">
        <ele>1230.9</ele>
        <time>2020-08-22T09:15:47Z</time>
      </trkpt>
      <trkpt lat="44.07282" lon="3.53627">
        <ele>1231</ele>
        <time>2020-08-22T09:16:07Z</time>
      </trkpt>
      <trkpt lat="44.07262" lon="3.53763">
        <ele>1231</ele>
        <time>2020-08-22T09:16:27Z</time>
      </trkpt>
      <trkpt lat="44.07159" lon="3.5372">
        <ele>1230.8</ele>
        <time>2020-08-22T09:17:02Z</time>
      </trkpt>
      <trkpt lat="44.07067" lon="3.53767">
        <ele>1230.6</ele>
        <time>2020-08-22T09:17:22Z</time>
      </trkpt>
      <trkpt lat="44.0697" lon="3.53828">
        <ele>1230.3</ele>
        <time>2020-08-22T09:17:42Z</time>
      </trkpt>
      <trkpt lat="44.06879" lon="3.539">
        <ele>1229.7</ele>
        <time>2020-08-22T09:18:02Z</time>
      </trkpt>
      <trkpt lat="44.06928" lon="3.54023">
        <ele>1229.4</ele>
        <time>2020-08-22T09:18:22Z</time>
      </trkpt>
      <trkpt lat="44.06986" lon="3.54138">
        <ele>1229.5</ele>
        <time>2020-08-22T09:18:47Z</time>
      </trkpt>
      <trkpt lat="44.069" lon="3.54196">
        <ele>1231.6</ele>
        <time>2020-08-22T09:22:56Z</time>
      </trkpt>
      <trkpt lat="44.06837" lon="3.54303">
        <ele>1232</ele>
        <time>2020-08-22T09:23:16Z</time>
      </trkpt>
      <trkpt lat="44.06768" lon="3.54386">
        <ele>1232.1</ele>
        <time>2020-08-22T09:23:36Z</time>
      </trkpt>
      <trkpt lat="44.06776" lon="3.54248">
        <ele>1232</ele>
        <time>2020-08-22T09:24:16Z</time>
      </trkpt>
      <trkpt lat="44.06737" lon="3.5413">
        <ele>1231.8</ele>
        <time>2020-08-22T09:25:03Z</time>
      </trkpt>
      <trkpt lat="44.0665" lon="3.5409">
        <ele>1232.7</ele>
        <time>2020-08-22T09:25:48Z</time>
      </trkpt>
      <trkpt lat="44.0657" lon="3.54149">
        <ele>1234</ele>
        <time>2020-08-22T09:26:34Z</time>
      </trkpt>
      <trkpt lat="44.0648" lon="3.54184">
        <ele>1235</ele>
        <time>2020-08-22T09:27:22Z</time>
      </trkpt>
      <trkpt lat="44.0641" lon="3.54279">
        <ele>1236</ele>
        <time>2020-08-22T09:28:15Z</time>
      </trkpt>
      <trkpt lat="44.06347" lon="3.54369">
        <ele>1253.3</ele>
        <time>2020-08-22T10:14:21Z</time>
      </trkpt>
      <trkpt lat="44.06287" lon="3.54473">
        <ele>1253.7</ele>
        <time>2020-08-22T10:15:14Z</time>
      </trkpt>
      <trkpt lat="44.06231" lon="3.54581">
        <ele>1254.7</ele>
        <time>2020-08-22T10:16:09Z</time>
      </trkpt>
      <trkpt lat="44.06137" lon="3.54602">
        <ele>1255.9</ele>
        <time>2020-08-22T10:16:54Z</time>
      </trkpt>
      <trkpt lat="44.06052" lon="3.5454">
        <ele>1257.6</ele>
        <time>2020-08-22T10:17:47Z</time>
      </trkpt>
      <trkpt lat="44.05953" lon="3.54551">
        <ele>1259.2</ele>
        <time>2020-08-22T10:18:32Z</time>
      </trkpt>
      <trkpt lat="44.05874" lon="3.54633">
        <ele>1260.4</ele>
        <time>2020-08-22T10:19:17Z</time>
      </trkpt>
      <trkpt lat="44.05777" lon="3.54639">
        <ele>1262.6</ele>
        <time>2020-08-22T10:20:01Z</time>
      </trkpt>
      <trkpt lat="44.05678" lon="3.54648">
        <ele>1266.5</ele>
        <time>2020-08-22T10:20:46Z</time>
      </trkpt>
      <trkpt lat="44.05585" lon="3.54686">
        <ele>1270.5</ele>
        <time>2020-08-22T10:21:31Z</time>
      </trkpt>
      <trkpt lat="44.05497" lon="3.54727">
        <ele>1273.8</ele>
        <time>2020-08-22T10:22:16Z</time>
      </trkpt>
      <trkpt lat="44.05403" lon="3.54754">
        <ele>1278</ele>
        <time>2020-08-22T10:23:01Z</time>
      </trkpt>
      <trkpt lat="44.05408" lon="3.54881">
        <ele>1282.5</ele>
        <time>2020-08-22T10:23:26Z</time>
      </trkpt>
      <trkpt lat="44.05447" lon="3.55001">
        <ele>1285.7</ele>
        <time>2020-08-22T10:23:41Z</time>
      </trkpt>
      <trkpt lat="44.05359" lon="3.55026">
        <ele>1286.7</ele>
        <time>2020-08-22T10:23:56Z</time>
      </trkpt>
      <trkpt lat="44.0527" lon="3.55073">
        <ele>1287.2</ele>
        <time>2020-08-22T10:24:06Z</time>
      </trkpt>
      <trkpt lat="44.05189" lon="3.55144">
        <ele>1288.2</ele>
        <time>2020-08-22T10:24:16Z</time>
      </trkpt>
      <trkpt lat="44.05195" lon="3.55274">
        <ele>1286.4</ele>
        <time>2020-08-22T10:24:26Z</time>
      </trkpt>
      <trkpt lat="44.05109" lon="3.55316">
        <ele>1283.4</ele>
        <time>2020-08-22T10:24:36Z</time>
      </trkpt>
      <trkpt lat="44.05018" lon="3.55359">
        <ele>1283</ele>
        <time>2020-08-22T10:24:46Z</time>
      </trkpt>
      <trkpt lat="44.04949" lon="3.55447">
        <ele>1277.5</ele>
        <time>2020-08-22T10:24:56Z</time>
      </trkpt>
      <trkpt lat="44.04937" lon="3.55586">
        <ele>1273.7</ele>
        <time>2020-08-22T10:25:06Z</time>
      </trkpt>
      <trkpt lat="44.04866" lon="3.55671">
        <ele>1272.7</ele>
        <time>2020-08-22T10:25:16Z</time>
      </trkpt>
      <trkpt lat="44.04865" lon="3.55801">
        <ele>1266.8</ele>
        <time>2020-08-22T10:25:26Z</time>
      </trkpt>
      <trkpt lat="44.04762" lon="3.55747">
        <ele>1253.7</ele>
        <time>2020-08-22T10:25:41Z</time>
      </trkpt>
      <trkpt lat="44.04664" lon="3.5562">
        <ele>1243</ele>
        <time>2020-08-22T10:25:56Z</time>
      </trkpt>
      <trkpt lat="44.0455" lon="3.55644">
        <ele>1237.4</ele>
        <time>2020-08-22T10:26:11Z</time>
      </trkpt>
      <trkpt lat="44.04468" lon="3.55714">
        <ele>1237.2</ele>
        <time>2020-08-22T10:26:21Z</time>
      </trkpt>
      <trkpt lat="44.04393" lon="3.55797">
        <ele>1235.6</ele>
        <time>2020-08-22T10:26:31Z</time>
      </trkpt>
      <trkpt lat="44.04308" lon="3.55893">
        <ele>1226.8</ele>
        <time>2020-08-22T10:26:46Z</time>
      </trkpt>
      <trkpt lat="44.04189" lon="3.55984">
        <ele>1219.6</ele>
        <time>2020-08-22T10:27:01Z</time>
      </trkpt>
      <trkpt lat="44.04086" lon="3.56006">
        <ele>1215.6</ele>
        <time>2020-08-22T10:27:11Z</time>
      </trkpt>
      <trkpt lat="44.04078" lon="3.56149">
        <ele>1208</ele>
        <time>2020-08-22T10:27:21Z</time>
      </trkpt>
      <trkpt lat="44.0408" lon="3.56293">
        <ele>1199.3</ele>
        <time>2020-08-22T10:27:31Z</time>
      </trkpt>
      <trkpt lat="44.04103" lon="3.5643">
        <ele>1194.6</ele>
        <time>2020-08-22T10:27:41Z</time>
      </trkpt>
      <trkpt lat="44.04016" lon="3.56492">
        <ele>1191.1</ele>
        <time>2020-08-22T10:27:51Z</time>
      </trkpt>
      <trkpt lat="44.03962" lon="3.56605">
        <ele>1185.5</ele>
        <time>2020-08-22T10:28:01Z</time>
      </trkpt>
      <trkpt lat="44.0392" lon="3.5674">
        <ele>1177.1</ele>
        <time>2020-08-22T10:28:11Z</time>
      </trkpt>
      <trkpt lat="44.03811" lon="3.56798">
        <ele>1170.4</ele>
        <time>2020-08-22T10:28:26Z</time>
      </trkpt>
      <trkpt lat="44.03723" lon="3.5682">
        <ele>1165.5</ele>
        <time>2020-08-22T10:28:36Z</time>
      </trkpt>
      <trkpt lat="44.03633" lon="3.5682">
        <ele>1160</ele>
        <time>2020-08-22T10:28:46Z</time>
      </trkpt>
      <trkpt lat="44.03572" lon="3.5692">
        <ele>1155.9</ele>
        <time>2020-08-22T10:28:56Z</time>
      </trkpt>
      <trkpt lat="44.03539" lon="3.57046">
        <ele>1144.7</ele>
        <time>2020-08-22T10:29:06Z</time>
      </trkpt>
      <trkpt lat="44.03545" lon="3.57178">
        <ele>1139.1</ele>
        <time>2020-08-22T10:29:16Z</time>
      </trkpt>
      <trkpt lat="44.03478" lon="3.57258">
        <ele>1130.7</ele>
        <time>2020-08-22T10:29:26Z</time>
      </trkpt>
      <trkpt lat="44.03387" lon="3.57199">
        <ele>1124.4</ele>
        <time>2020-08-22T10:29:36Z</time>
      </trkpt>
      <trkpt lat="44.03288" lon="3.57145">
        <ele>1119.3</ele>
        <time>2020-08-22T10:29:46Z</time>
      </trkpt>
      <trkpt lat="44.03193" lon="3.57158">
        <ele>1117.2</ele>
        <time>2020-08-22T10:29:56Z</time>
      </trkpt>
      <trkpt lat="44.03136" lon="3.57275">
        <ele>1110.1</ele>
        <time>2020-08-22T10:30:06Z</time>
      </trkpt>
      <trkpt lat="44.03079" lon="3.57375">
        <ele>1101.9</ele>
        <time>2020-08-22T10:30:16Z</time>
      </trkpt>
      <trkpt lat="44.02981" lon="3.57376">
        <ele>1097</ele>
        <time>2020-08-22T10:30:26Z</time>
      </trkpt>
      <trkpt lat="44.02889" lon="3.57441">
        <ele>1091.3</ele>
        <time>2020-08-22T10:30:36Z</time>
      </trkpt>
      <trkpt lat="44.02792" lon="3.5747">
        <ele>1087.1</ele>
        <time>2020-08-22T10:30:46Z</time>
      </trkpt>
      <trkpt lat="44.02701" lon="3.57454">
        <ele>1082.9</ele>
        <time>2020-08-22T10:30:56Z</time>
      </trkpt>
      <trkpt lat="44.026" lon="3.57337">
        <ele>1078.3</ele>
        <time>2020-08-22T10:31:11Z</time>
      </trkpt>
      <trkpt lat="44.02513" lon="3.57278">
        <ele>1069.1</ele>
        <time>2020-08-22T10:31:21Z</time>
      </trkpt>
      <trkpt lat="44.02456" lon="3.57113">
        <ele>1062.1</ele>
        <time>2020-08-22T10:31:36Z</time>
      </trkpt>
      <trkpt lat="44.02512" lon="3.56984">
        <ele>1056.5</ele>
        <time>2020-08-22T10:31:51Z</time>
      </trkpt>
      <trkpt lat="44.02382" lon="3.56917">
        <ele>1040.4</ele>
        <time>2020-08-22T10:32:06Z</time>
      </trkpt>
      <trkpt lat="44.02298" lon="3.56778">
        <ele>1033.3</ele>
        <time>2020-08-22T10:32:21Z</time>
      </trkpt>
      <trkpt lat="44.0223" lon="3.5663">
        <ele>1031.7</ele>
        <time>2020-08-22T10:32:36Z</time>
      </trkpt>
      <trkpt lat="44.02162" lon="3.56543">
        <ele>1027.2</ele>
        <time>2020-08-22T10:32:46Z</time>
      </trkpt>
      <trkpt lat="44.02068" lon="3.56549">
        <ele>1025.7</ele>
        <time>2020-08-22T10:32:56Z</time>
      </trkpt>
      <trkpt lat="44.02059" lon="3.5668">
        <ele>1026.5</ele>
        <time>2020-08-22T10:33:06Z</time>
      </trkpt>
      <trkpt lat="44.02159" lon="3.56722">
        <ele>1024.5</ele>
        <time>2020-08-22T10:33:21Z</time>
      </trkpt>
      <trkpt lat="44.02172" lon="3.56878">
        <ele>1018.8</ele>
        <time>2020-08-22T10:33:36Z</time>
      </trkpt>
      <trkpt lat="44.02179" lon="3.57012">
        <ele>1017.6</ele>
        <time>2020-08-22T10:33:46Z</time>
      </trkpt>
      <trkpt lat="44.02176" lon="3.57147">
        <ele>1017.2</ele>
        <time>2020-08-22T10:33:56Z</time>
      </trkpt>
      <trkpt lat="44.02145" lon="3.57267">
        <ele>1015.8</ele>
        <time>2020-08-22T10:34:06Z</time>
      </trkpt>
      <trkpt lat="44.02099" lon="3.57377">
        <ele>1014.8</ele>
        <time>2020-08-22T10:34:16Z</time>
      </trkpt>
      <trkpt lat="44.02195" lon="3.57501">
        <ele>1001.7</ele>
        <time>2020-08-22T10:34:31Z</time>
      </trkpt>
      <trkpt lat="44.02296" lon="3.57632">
        <ele>993.2</ele>
        <time>2020-08-22T10:34:46Z</time>
      </trkpt>
      <trkpt lat="44.02284" lon="3.57759">
        <ele>984.6</ele>
        <time>2020-08-22T10:34:56Z</time>
      </trkpt>
      <trkpt lat="44.02241" lon="3.57886">
        <ele>981.4</ele>
        <time>2020-08-22T10:35:06Z</time>
      </trkpt>
      <trkpt lat="44.02237" lon="3.5803">
        <ele>979.7</ele>
        <time>2020-08-22T10:35:16Z</time>
      </trkpt>
      <trkpt lat="44.02295" lon="3.58144">
        <ele>973.4</ele>
        <time>2020-08-22T10:35:26Z</time>
      </trkpt>
      <trkpt lat="44.02374" lon="3.58224">
        <ele>965</ele>
        <time>2020-08-22T10:35:36Z</time>
      </trkpt>
      <trkpt lat="44.02453" lon="3.58143">
        <ele>946.7</ele>
        <time>2020-08-22T10:35:46Z</time>
      </trkpt>
      <trkpt lat="44.02521" lon="3.58058">
        <ele>936.9</ele>
        <time>2020-08-22T10:35:56Z</time>
      </trkpt>
      <trkpt lat="44.02596" lon="3.57984">
        <ele>928.2</ele>
        <time>2020-08-22T10:36:06Z</time>
      </trkpt>
      <trkpt lat="44.02687" lon="3.58038">
        <ele>921.5</ele>
        <time>2020-08-22T10:36:16Z</time>
      </trkpt>
      <trkpt lat="44.02762" lon="3.58135">
        <ele>917.5</ele>
        <time>2020-08-22T10:36:26Z</time>
      </trkpt>
      <trkpt lat="44.02858" lon="3.58191">
        <ele>912</ele>
        <time>2020-08-22T10:36:36Z</time>
      </trkpt>
      <trkpt lat="44.02953" lon="3.58187">
        <ele>908.1</ele>
        <time>2020-08-22T10:36:46Z</time>
      </trkpt>
      <trkpt lat="44.03068" lon="3.58097">
        <ele>899.4</ele>
        <time>2020-08-22T10:37:01Z</time>
      </trkpt>
      <trkpt lat="44.03157" lon="3.58043">
        <ele>891.3</ele>
        <time>2020-08-22T10:37:11Z</time>
      </trkpt>
      <trkpt lat="44.03236" lon="3.57965">
        <ele>885.7</ele>
        <time>2020-08-22T10:37:21Z</time>
      </trkpt>
      <trkpt lat="44.03273" lon="3.57838">
        <ele>877.6</ele>
        <time>2020-08-22T10:37:31Z</time>
      </trkpt>
      <trkpt lat="44.0336" lon="3.57928">
        <ele>867.3</ele>
        <time>2020-08-22T10:37:46Z</time>
      </trkpt>
      <trkpt lat="44.03405" lon="3.58053">
        <ele>862</ele>
        <time>2020-08-22T10:37:56Z</time>
      </trkpt>
      <trkpt lat="44.03469" lon="3.58163">
        <ele>858.5</ele>
        <time>2020-08-22T10:38:06Z</time>
      </trkpt>
      <trkpt lat="44.03503" lon="3.58294">
        <ele>849.7</ele>
        <time>2020-08-22T10:38:21Z</time>
      </trkpt>
      <trkpt lat="44.03427" lon="3.58362">
        <ele>843.4</ele>
        <time>2020-08-22T10:38:31Z</time>
      </trkpt>
      <trkpt lat="44.03406" lon="3.58506">
        <ele>837.1</ele>
        <time>2020-08-22T10:38:41Z</time>
      </trkpt>
      <trkpt lat="44.03482" lon="3.58587">
        <ele>831.9</ele>
        <time>2020-08-22T10:38:51Z</time>
      </trkpt>
      <trkpt lat="44.03564" lon="3.58664">
        <ele>828.1</ele>
        <time>2020-08-22T10:39:01Z</time>
      </trkpt>
      <trkpt lat="44.03696" lon="3.58662">
        <ele>820.2</ele>
        <time>2020-08-22T10:39:16Z</time>
      </trkpt>
      <trkpt lat="44.03784" lon="3.58747">
        <ele>813.3</ele>
        <time>2020-08-22T10:39:26Z</time>
      </trkpt>
      <trkpt lat="44.0388" lon="3.58815">
        <ele>807.8</ele>
        <time>2020-08-22T10:39:36Z</time>
      </trkpt>
      <trkpt lat="44.03978" lon="3.58858">
        <ele>803.9</ele>
        <time>2020-08-22T10:39:46Z</time>
      </trkpt>
      <trkpt lat="44.04073" lon="3.58876">
        <ele>797.7</ele>
        <time>2020-08-22T10:39:56Z</time>
      </trkpt>
      <trkpt lat="44.04168" lon="3.58876">
        <ele>792.8</ele>
        <time>2020-08-22T10:40:06Z</time>
      </trkpt>
      <trkpt lat="44.04259" lon="3.58879">
        <ele>786.7</ele>
        <time>2020-08-22T10:40:16Z</time>
      </trkpt>
      <trkpt lat="44.04213" lon="3.59023">
        <ele>772.8</ele>
        <time>2020-08-22T10:40:41Z</time>
      </trkpt>
      <trkpt lat="44.04114" lon="3.59055">
        <ele>770.3</ele>
        <time>2020-08-22T10:40:51Z</time>
      </trkpt>
      <trkpt lat="44.04024" lon="3.59128">
        <ele>765.9</ele>
        <time>2020-08-22T10:41:01Z</time>
      </trkpt>
      <trkpt lat="44.03932" lon="3.5917">
        <ele>762.3</ele>
        <time>2020-08-22T10:41:11Z</time>
      </trkpt>
      <trkpt lat="44.0383" lon="3.59157">
        <ele>759.6</ele>
        <time>2020-08-22T10:41:21Z</time>
      </trkpt>
      <trkpt lat="44.03703" lon="3.59133">
        <ele>752.3</ele>
        <time>2020-08-22T10:41:36Z</time>
      </trkpt>
      <trkpt lat="44.03611" lon="3.59136">
        <ele>747.2</ele>
        <time>2020-08-22T10:41:46Z</time>
      </trkpt>
      <trkpt lat="44.03508" lon="3.59156">
        <ele>742.7</ele>
        <time>2020-08-22T10:41:56Z</time>
      </trkpt>
      <trkpt lat="44.03401" lon="3.59192">
        <ele>734.6</ele>
        <time>2020-08-22T10:42:06Z</time>
      </trkpt>
      <trkpt lat="44.033" lon="3.59297">
        <ele>723.2</ele>
        <time>2020-08-22T10:42:21Z</time>
      </trkpt>
      <trkpt lat="44.03207" lon="3.59339">
        <ele>718</ele>
        <time>2020-08-22T10:42:31Z</time>
      </trkpt>
      <trkpt lat="44.0307" lon="3.59356">
        <ele>709.9</ele>
        <time>2020-08-22T10:42:46Z</time>
      </trkpt>
      <trkpt lat="44.0301" lon="3.59472">
        <ele>699.4</ele>
        <time>2020-08-22T10:42:56Z</time>
      </trkpt>
      <trkpt lat="44.02879" lon="3.59508">
        <ele>693.1</ele>
        <time>2020-08-22T10:43:11Z</time>
      </trkpt>
      <trkpt lat="44.02816" lon="3.59607">
        <ele>687.2</ele>
        <time>2020-08-22T10:43:21Z</time>
      </trkpt>
      <trkpt lat="44.02784" lon="3.59741">
        <ele>676.6</ele>
        <time>2020-08-22T10:43:31Z</time>
      </trkpt>
      <trkpt lat="44.02707" lon="3.59638">
        <ele>671.4</ele>
        <time>2020-08-22T10:43:46Z</time>
      </trkpt>
      <trkpt lat="44.02604" lon="3.59695">
        <ele>667.7</ele>
        <time>2020-08-22T10:44:01Z</time>
      </trkpt>
      <trkpt lat="44.02537" lon="3.59784">
        <ele>663.3</ele>
        <time>2020-08-22T10:44:11Z</time>
      </trkpt>
      <trkpt lat="44.02435" lon="3.59776">
        <ele>654.6</ele>
        <time>2020-08-22T10:45:46Z</time>
      </trkpt>
      <trkpt lat="44.02332" lon="3.59712">
        <ele>648.7</ele>
        <time>2020-08-22T10:46:01Z</time>
      </trkpt>
      <trkpt lat="44.02216" lon="3.59713">
        <ele>642.8</ele>
        <time>2020-08-22T10:46:16Z</time>
      </trkpt>
      <trkpt lat="44.02129" lon="3.59786">
        <ele>639.4</ele>
        <time>2020-08-22T10:46:26Z</time>
      </trkpt>
      <trkpt lat="44.02124" lon="3.59923">
        <ele>634.3</ele>
        <time>2020-08-22T10:46:36Z</time>
      </trkpt>
      <trkpt lat="44.02173" lon="3.60059">
        <ele>628.8</ele>
        <time>2020-08-22T10:46:46Z</time>
      </trkpt>
      <trkpt lat="44.02206" lon="3.60186">
        <ele>624.3</ele>
        <time>2020-08-22T10:46:56Z</time>
      </trkpt>
      <trkpt lat="44.02087" lon="3.60157">
        <ele>615.9</ele>
        <time>2020-08-22T10:47:11Z</time>
      </trkpt>
      <trkpt lat="44.01983" lon="3.60107">
        <ele>608.2</ele>
        <time>2020-08-22T10:47:26Z</time>
      </trkpt>
      <trkpt lat="44.01883" lon="3.60026">
        <ele>596.6</ele>
        <time>2020-08-22T10:47:46Z</time>
      </trkpt>
      <trkpt lat="44.01808" lon="3.59941">
        <ele>591.3</ele>
        <time>2020-08-22T10:47:56Z</time>
      </trkpt>
      <trkpt lat="44.01735" lon="3.59829">
        <ele>588.9</ele>
        <time>2020-08-22T10:48:06Z</time>
      </trkpt>
      <trkpt lat="44.0164" lon="3.59823">
        <ele>585.2</ele>
        <time>2020-08-22T10:48:16Z</time>
      </trkpt>
      <trkpt lat="44.01516" lon="3.59795">
        <ele>574.9</ele>
        <time>2020-08-22T10:48:31Z</time>
      </trkpt>
      <trkpt lat="44.01418" lon="3.59674">
        <ele>556.6</ele>
        <time>2020-08-22T10:48:46Z</time>
      </trkpt>
      <trkpt lat="44.01341" lon="3.59589">
        <ele>547.5</ele>
        <time>2020-08-22T10:48:56Z</time>
      </trkpt>
      <trkpt lat="44.01258" lon="3.59483">
        <ele>543.7</ele>
        <time>2020-08-22T10:49:06Z</time>
      </trkpt>
      <trkpt lat="44.01148" lon="3.59422">
        <ele>539.8</ele>
        <time>2020-08-22T10:49:16Z</time>
      </trkpt>
      <trkpt lat="44.0107" lon="3.59526">
        <ele>534.6</ele>
        <time>2020-08-22T10:49:26Z</time>
      </trkpt>
      <trkpt lat="44.00969" lon="3.5944">
        <ele>530.4</ele>
        <time>2020-08-22T10:49:41Z</time>
      </trkpt>
      <trkpt lat="44.00834" lon="3.594">
        <ele>523.8</ele>
        <time>2020-08-22T10:49:56Z</time>
      </trkpt>
      <trkpt lat="44.00742" lon="3.59363">
        <ele>518.1</ele>
        <time>2020-08-22T10:50:06Z</time>
      </trkpt>
      <trkpt lat="44.00705" lon="3.59476">
        <ele>510.1</ele>
        <time>2020-08-22T10:50:16Z</time>
      </trkpt>
      <trkpt lat="44.00605" lon="3.59448">
        <ele>498.6</ele>
        <time>2020-08-22T10:50:36Z</time>
      </trkpt>
      <trkpt lat="44.00602" lon="3.59264">
        <ele>492.8</ele>
        <time>2020-08-22T10:50:51Z</time>
      </trkpt>
      <trkpt lat="44.00491" lon="3.5921">
        <ele>487.3</ele>
        <time>2020-08-22T10:51:06Z</time>
      </trkpt>
      <trkpt lat="44.0036" lon="3.59178">
        <ele>480.9</ele>
        <time>2020-08-22T10:51:21Z</time>
      </trkpt>
      <trkpt lat="44.00287" lon="3.5909">
        <ele>478.3</ele>
        <time>2020-08-22T10:51:31Z</time>
      </trkpt>
      <trkpt lat="44.00191" lon="3.59026">
        <ele>474</ele>
        <time>2020-08-22T10:51:41Z</time>
      </trkpt>
      <trkpt lat="44.00103" lon="3.58994">
        <ele>465.5</ele>
        <time>2020-08-22T10:51:51Z</time>
      </trkpt>
      <trkpt lat="43.99992" lon="3.58914">
        <ele>458.2</ele>
        <time>2020-08-22T10:52:06Z</time>
      </trkpt>
      <trkpt lat="43.99863" lon="3.58901">
        <ele>451.8</ele>
        <time>2020-08-22T10:52:21Z</time>
      </trkpt>
      <trkpt lat="43.99774" lon="3.58947">
        <ele>447</ele>
        <time>2020-08-22T10:52:31Z</time>
      </trkpt>
      <trkpt lat="43.99684" lon="3.58971">
        <ele>443.9</ele>
        <time>2020-08-22T10:52:41Z</time>
      </trkpt>
      <trkpt lat="43.99593" lon="3.58969">
        <ele>440.3</ele>
        <time>2020-08-22T10:52:51Z</time>
      </trkpt>
      <trkpt lat="43.99505" lon="3.59">
        <ele>437.6</ele>
        <time>2020-08-22T10:53:01Z</time>
      </trkpt>
      <trkpt lat="43.99411" lon="3.58998">
        <ele>433.6</ele>
        <time>2020-08-22T10:53:11Z</time>
      </trkpt>
      <trkpt lat="43.99278" lon="3.5901">
        <ele>429</ele>
        <time>2020-08-22T10:53:26Z</time>
      </trkpt>
      <trkpt lat="43.99143" lon="3.5899">
        <ele>422.7</ele>
        <time>2020-08-22T10:53:41Z</time>
      </trkpt>
      <trkpt lat="43.9905" lon="3.58996">
        <ele>421.3</ele>
        <time>2020-08-22T10:53:51Z</time>
      </trkpt>
      <trkpt lat="43.98959" lon="3.58979">
        <ele>417.3</ele>
        <time>2020-08-22T10:54:01Z</time>
      </trkpt>
      <trkpt lat="43.98868" lon="3.58947">
        <ele>413.5</ele>
        <time>2020-08-22T10:54:11Z</time>
      </trkpt>
      <trkpt lat="43.98785" lon="3.58887">
        <ele>409.3</ele>
        <time>2020-08-22T10:54:21Z</time>
      </trkpt>
      <trkpt lat="43.9868" lon="3.58792">
        <ele>402.7</ele>
        <time>2020-08-22T10:54:36Z</time>
      </trkpt>
      <trkpt lat="43.98589" lon="3.58683">
        <ele>393.2</ele>
        <time>2020-08-22T10:54:51Z</time>
      </trkpt>
      <trkpt lat="43.98464" lon="3.5864">
        <ele>386.7</ele>
        <time>2020-08-22T10:55:06Z</time>
      </trkpt>
      <trkpt lat="43.98374" lon="3.58654">
        <ele>384.9</ele>
        <time>2020-08-22T10:55:16Z</time>
      </trkpt>
      <trkpt lat="43.98266" lon="3.58565">
        <ele>381.2</ele>
        <time>2020-08-22T10:55:31Z</time>
      </trkpt>
      <trkpt lat="43.98156" lon="3.585">
        <ele>376.1</ele>
        <time>2020-08-22T10:55:46Z</time>
      </trkpt>
      <trkpt lat="43.98085" lon="3.58587">
        <ele>372</ele>
        <time>2020-08-22T10:55:56Z</time>
      </trkpt>
      <trkpt lat="43.97999" lon="3.58645">
        <ele>364.4</ele>
        <time>2020-08-22T10:56:06Z</time>
      </trkpt>
      <trkpt lat="43.97923" lon="3.58714">
        <ele>358.2</ele>
        <time>2020-08-22T10:56:16Z</time>
      </trkpt>
      <trkpt lat="43.9786" lon="3.58806">
        <ele>353.1</ele>
        <time>2020-08-22T10:56:26Z</time>
      </trkpt>
      <trkpt lat="43.97792" lon="3.58885">
        <ele>337.2</ele>
        <time>2020-08-22T10:58:57Z</time>
      </trkpt>
      <trkpt lat="43.97697" lon="3.58972">
        <ele>322.9</ele>
        <time>2020-08-22T11:00:03Z</time>
      </trkpt>
      <trkpt lat="43.97598" lon="3.58989">
        <ele>321</ele>
        <time>2020-08-22T11:00:18Z</time>
      </trkpt>
      <trkpt lat="43.97556" lon="3.59112">
        <ele>319.8</ele>
        <time>2020-08-22T11:00:33Z</time>
      </trkpt>
      <trkpt lat="43.97468" lon="3.59205">
        <ele>313.6</ele>
        <time>2020-08-22T11:00:48Z</time>
      </trkpt>
      <trkpt lat="43.97504" lon="3.59331">
        <ele>306.2</ele>
        <time>2020-08-22T11:01:08Z</time>
      </trkpt>
      <trkpt lat="43.9761" lon="3.59391">
        <ele>305.9</ele>
        <time>2020-08-22T11:01:28Z</time>
      </trkpt>
      <trkpt lat="43.97717" lon="3.59428">
        <ele>306.2</ele>
        <time>2020-08-22T11:01:48Z</time>
      </trkpt>
      <trkpt lat="43.97814" lon="3.59472">
        <ele>304.3</ele>
        <time>2020-08-22T11:02:08Z</time>
      </trkpt>
      <trkpt lat="43.97907" lon="3.5952">
        <ele>301.9</ele>
        <time>2020-08-22T11:02:33Z</time>
      </trkpt>
      <trkpt lat="43.97992" lon="3.5957">
        <ele>298.8</ele>
        <time>2020-08-22T11:02:58Z</time>
      </trkpt>
      <trkpt lat="43.98076" lon="3.59644">
        <ele>296.7</ele>
        <time>2020-08-22T11:03:23Z</time>
      </trkpt>
      <trkpt lat="43.98142" lon="3.5974">
        <ele>295.1</ele>
        <time>2020-08-22T11:03:48Z</time>
      </trkpt>
      <trkpt lat="43.98204" lon="3.5984">
        <ele>294.3</ele>
        <time>2020-08-22T11:04:13Z</time>
      </trkpt>
      <trkpt lat="43.98274" lon="3.59937">
        <ele>293.6</ele>
        <time>2020-08-22T11:04:33Z</time>
      </trkpt>
      <trkpt lat="43.98339" lon="3.60056">
        <ele>292.6</ele>
        <time>2020-08-22T11:04:53Z</time>
      </trkpt>
      <trkpt lat="43.98405" lon="3.60146">
        <ele>292.2</ele>
        <time>2020-08-22T11:05:13Z</time>
      </trkpt>
      <trkpt lat="43.9848" lon="3.60232">
        <ele>291.9</ele>
        <time>2020-08-22T11:05:38Z</time>
      </trkpt>
      <trkpt lat="43.98577" lon="3.60279">
        <ele>291.4</ele>
        <time>2020-08-22T11:06:13Z</time>
      </trkpt>
      <trkpt lat="43.98673" lon="3.60305">
        <ele>290.9</ele>
        <time>2020-08-22T11:06:43Z</time>
      </trkpt>
      <trkpt lat="43.98764" lon="3.60323">
        <ele>290.2</ele>
        <time>2020-08-22T11:07:08Z</time>
      </trkpt>
      <trkpt lat="43.98862" lon="3.60375">
        <ele>289.8</ele>
        <time>2020-08-22T11:07:38Z</time>
      </trkpt>
      <trkpt lat="43.98951" lon="3.60429">
        <ele>289.2</ele>
        <time>2020-08-22T11:08:08Z</time>
      </trkpt>
      <trkpt lat="43.98952" lon="3.60558">
        <ele>287.9</ele>
        <time>2020-08-22T11:08:33Z</time>
      </trkpt>
      <trkpt lat="43.99014" lon="3.60664">
        <ele>287.8</ele>
        <time>2020-08-22T11:09:03Z</time>
      </trkpt>
      <trkpt lat="43.99105" lon="3.60675">
        <ele>284</ele>
        <time>2020-08-22T11:20:15Z</time>
      </trkpt>
      <trkpt lat="43.99202" lon="3.607">
        <ele>282.5</ele>
        <time>2020-08-22T11:21:51Z</time>
      </trkpt>
      <trkpt lat="43.99252" lon="3.60591">
        <ele>280.8</ele>
        <time>2020-08-22T11:23:11Z</time>
      </trkpt>
      <trkpt lat="43.99246" lon="3.60455">
        <ele>280.6</ele>
        <time>2020-08-22T11:24:05Z</time>
      </trkpt>
    </trkseg>
  </trk>
</gpx>